createdAt,value
2019-04-10T00:00:44.103Z,101227.33
2019-04-10T00:03:25.501Z,101228.61
2019-04-10T00:05:43.002Z,101231.95
2019-04-10T00:08:12.313Z,101231.97
2019-04-10T00:10:40.902Z,101236.13
2019-04-10T00:13:10.081Z,101234.92
2019-04-10T00:15:38.630Z,101232.05
2019-04-10T00:18:07.427Z,101231.28
2019-04-10T00:20:36.503Z,101227.60
2019-04-10T00:23:05.093Z,101235.52
2019-04-10T00:25:33.534Z,101237.16
2019-04-10T00:28:03.182Z,101234.72
2019-04-10T00:30:31.754Z,101241.50
2019-04-10T00:33:00.571Z,101231.44
2019-04-10T00:35:29.750Z,101229.16
2019-04-10T00:37:58.345Z,101227.28
2019-04-10T00:40:27.652Z,101231.44
2019-04-10T00:42:57.279Z,101234.78
2019-04-10T00:45:27.175Z,101233.11
2019-04-10T00:47:55.651Z,101232.02
2019-04-10T00:50:24.095Z,101236.78
2019-04-10T00:52:52.638Z,101223.02
2019-04-10T00:55:21.813Z,101228.73
2019-04-10T00:57:50.335Z,101237.16
2019-04-10T01:00:19.174Z,101234.56
2019-04-10T01:02:47.683Z,101233.30
2019-04-10T01:05:17.305Z,101227.16
2019-04-10T01:07:46.989Z,101231.98
2019-04-10T01:10:17.757Z,101234.26
2019-04-10T01:12:46.398Z,101237.08
2019-04-10T01:15:14.815Z,101241.61
2019-04-10T01:17:43.395Z,101245.61
2019-04-10T01:20:11.883Z,101236.27
2019-04-10T01:22:41.388Z,101232.48
2019-04-10T01:25:10.344Z,101241.78
2019-04-10T01:27:38.907Z,101235.81
2019-04-10T01:30:08.632Z,101232.84
2019-04-10T01:32:37.225Z,101234.54
2019-04-10T01:35:07.844Z,101240.77
2019-04-10T01:37:48.668Z,101230.13
2019-04-10T01:40:08.386Z,101236.63
2019-04-10T01:42:36.921Z,101236.78
2019-04-10T01:45:07.200Z,101235.54
2019-04-10T01:47:35.707Z,101238.63
2019-04-10T01:50:04.683Z,101238.55
2019-04-10T01:52:33.307Z,101243.20
2019-04-10T01:55:03.287Z,101240.12
2019-04-10T01:57:32.498Z,101239.59
2019-04-10T02:00:00.974Z,101238.99
2019-04-10T02:02:31.651Z,101244.49
2019-04-10T02:05:00.677Z,101233.62
2019-04-10T02:07:29.918Z,101239.20
2019-04-10T02:09:59.516Z,101237.19
2019-04-10T02:12:28.486Z,101240.12
2019-04-10T02:14:57.006Z,101238.23
2019-04-10T02:17:25.475Z,101251.91
2019-04-10T02:19:54.550Z,101246.70
2019-04-10T02:22:23.050Z,101245.69
2019-04-10T02:24:51.550Z,101238.34
2019-04-10T02:27:20.412Z,101240.48
2019-04-10T02:29:48.931Z,101242.33
2019-04-10T02:32:18.937Z,101238.91
2019-04-10T02:34:48.954Z,101241.55
2019-04-10T02:37:19.223Z,101237.69
2019-04-10T02:39:52.291Z,101237.08
2019-04-10T02:42:18.593Z,101241.79
2019-04-10T02:44:48.334Z,101235.91
2019-04-10T02:47:19.037Z,101235.80
2019-04-10T02:49:49.234Z,101238.88
2019-04-10T02:52:17.767Z,101236.72
2019-04-10T02:54:46.210Z,101236.03
2019-04-10T02:57:14.703Z,101237.36
2019-04-10T02:59:43.314Z,101237.77
2019-04-10T03:02:13.902Z,101238.10
2019-04-10T03:04:42.603Z,101236.89
2019-04-10T03:07:11.555Z,101241.59
2019-04-10T03:09:53.540Z,101237.97
2019-04-10T03:12:12.522Z,101238.91
2019-04-10T03:14:41.481Z,101242.33
2019-04-10T03:17:12.161Z,101244.31
2019-04-10T03:19:41.374Z,101245.32
2019-04-10T03:22:10.500Z,101243.45
2019-04-10T03:24:40.083Z,101246.95
2019-04-10T03:27:08.726Z,101252.47
2019-04-10T03:29:38.000Z,101246.66
2019-04-10T03:32:28.480Z,101242.77
2019-04-10T03:34:56.620Z,101246.30
2019-04-10T03:37:26.424Z,101245.30
2019-04-10T03:39:55.272Z,101248.75
2019-04-10T03:42:23.792Z,101247.27
2019-04-10T03:44:52.260Z,101239.64
2019-04-10T03:47:20.709Z,101241.72
2019-04-10T03:49:49.853Z,101249.47
2019-04-10T03:52:19.020Z,101235.98
2019-04-10T03:54:48.167Z,101238.34
2019-04-10T03:57:16.697Z,101235.02
2019-04-10T03:59:45.479Z,101241.77
2019-04-10T04:02:14.007Z,101242.25
2019-04-10T04:04:42.539Z,101240.47
2019-04-10T04:07:11.308Z,101241.80
2019-04-10T04:09:39.838Z,101244.09
2019-04-10T04:12:08.478Z,101247.70
2019-04-10T04:14:37.023Z,101258.74
2019-04-10T04:17:06.093Z,101251.58
2019-04-10T04:19:34.693Z,101254.52
2019-04-10T04:22:04.031Z,101257.67
2019-04-10T04:24:33.527Z,101263.80
2019-04-10T04:27:02.771Z,101268.94
2019-04-10T04:29:32.301Z,101263.16
2019-04-10T04:32:01.218Z,101266.35
2019-04-10T04:34:29.723Z,101266.30
2019-04-10T04:36:58.195Z,101269.61
2019-04-10T04:39:28.402Z,101262.78
2019-04-10T04:41:56.826Z,101265.41
2019-04-10T04:44:25.284Z,101263.44
2019-04-10T04:46:53.787Z,101271.30
2019-04-10T04:49:22.217Z,101268.76
2019-04-10T04:51:50.694Z,101261.59
2019-04-10T04:54:19.267Z,101262.32
2019-04-10T04:56:48.377Z,101260.95
2019-04-10T04:59:16.937Z,101261.28
2019-04-10T05:01:45.427Z,101274.08
2019-04-10T05:04:13.868Z,101263.69
2019-04-10T05:06:42.344Z,101272.52
2019-04-10T05:09:11.254Z,101279.12
2019-04-10T05:11:39.832Z,101277.77
2019-04-10T05:14:08.308Z,101285.59
2019-04-10T05:16:36.800Z,101285.80
2019-04-10T05:19:05.272Z,101290.44
2019-04-10T05:21:33.722Z,101294.39
2019-04-10T05:24:03.233Z,101295.17
2019-04-10T05:26:32.331Z,101292.16
2019-04-10T05:29:00.852Z,101292.50
2019-04-10T05:31:29.302Z,101295.63
2019-04-10T05:33:57.774Z,101295.80
2019-04-10T05:36:26.282Z,101295.30
2019-04-10T05:38:54.711Z,101293.55
2019-04-10T05:41:24.376Z,101304.59
2019-04-10T05:43:53.059Z,101307.84
2019-04-10T05:46:22.790Z,101305.08
2019-04-10T05:48:52.559Z,101308.57
2019-04-10T05:51:21.334Z,101310.66
2019-04-10T05:53:52.288Z,101312.64
2019-04-10T05:56:20.697Z,101320.59
2019-04-10T05:58:49.196Z,101319.91
2019-04-10T06:01:29.997Z,101309.98
2019-04-10T06:03:49.175Z,101316.97
2019-04-10T06:06:17.656Z,101323.52
2019-04-10T06:08:47.077Z,101314.84
2019-04-10T06:11:15.578Z,101317.67
2019-04-10T06:13:45.072Z,101316.38
2019-04-10T06:16:13.672Z,101314.33
2019-04-10T06:18:43.059Z,101320.01
2019-04-10T06:21:12.535Z,101311.60
2019-04-10T06:23:41.379Z,101320.53
2019-04-10T06:26:10.269Z,101312.89
2019-04-10T06:28:38.743Z,101314.78
2019-04-10T06:31:08.338Z,101313.48
2019-04-10T06:33:37.043Z,101320.81
2019-04-10T06:36:05.509Z,101313.55
2019-04-10T06:38:34.788Z,101320.72
2019-04-10T06:41:04.133Z,101316.27
2019-04-10T06:43:32.995Z,101325.95
2019-04-10T06:46:01.563Z,101315.04
2019-04-10T06:48:30.054Z,101316.13
2019-04-10T06:50:58.483Z,101317.91
2019-04-10T06:53:26.965Z,101322.59
2019-04-10T06:55:56.463Z,101318.26
2019-04-10T06:58:25.496Z,101322.39
2019-04-10T07:00:55.956Z,101320.61
2019-04-10T07:03:33.889Z,101322.30
2019-04-10T07:06:06.231Z,101324.58
2019-04-10T07:08:27.517Z,101321.42
2019-04-10T07:11:02.580Z,101323.97
2019-04-10T07:13:26.225Z,101332.27
2019-04-10T07:15:58.113Z,101334.05
2019-04-10T07:18:24.863Z,101333.47
2019-04-10T07:20:56.387Z,101331.00
2019-04-10T07:23:27.460Z,101334.92
2019-04-10T07:25:54.825Z,101341.38
2019-04-10T07:28:23.805Z,101339.13
2019-04-10T07:30:56.848Z,101337.11
2019-04-10T07:33:22.678Z,101342.20
2019-04-10T07:35:54.602Z,101349.52
2019-04-10T07:38:22.503Z,101342.69
2019-04-10T07:40:51.345Z,101346.77
2019-04-10T07:43:24.495Z,101352.14
2019-04-10T07:45:49.903Z,101350.73
2019-04-10T07:48:18.483Z,101348.08
2019-04-10T07:50:47.521Z,101353.80
2019-04-10T07:53:16.997Z,101354.71
2019-04-10T07:56:00.457Z,101359.22
2019-04-10T07:58:17.359Z,101354.77
2019-04-10T08:00:46.977Z,101351.23
2019-04-10T08:03:16.651Z,101356.97
2019-04-10T08:05:46.037Z,101356.27
2019-04-10T08:08:14.499Z,101358.27
2019-04-10T08:10:44.042Z,101362.36
2019-04-10T08:13:14.120Z,101357.81
2019-04-10T08:15:43.319Z,101362.22
2019-04-10T08:18:12.286Z,101362.89
2019-04-10T08:20:40.764Z,101363.26
2019-04-10T08:23:10.134Z,101371.34
2019-04-10T08:25:38.855Z,101366.17
2019-04-10T08:28:07.339Z,101370.88
2019-04-10T08:30:36.298Z,101368.36
2019-04-10T08:33:06.047Z,101364.16
2019-04-10T08:35:35.669Z,101371.03
2019-04-10T08:38:05.386Z,101369.01
2019-04-10T08:40:34.285Z,101375.80
2019-04-10T08:43:04.044Z,101368.14
2019-04-10T08:45:40.564Z,101370.51
2019-04-10T08:48:03.678Z,101371.77
2019-04-10T08:50:32.354Z,101374.23
2019-04-10T08:53:01.993Z,101370.00
2019-04-10T08:55:30.657Z,101367.81
2019-04-10T08:58:00.638Z,101374.77
2019-04-10T09:00:29.178Z,101375.84
2019-04-10T09:02:58.180Z,101374.14
2019-04-10T09:05:27.818Z,101370.16
2019-04-10T09:07:56.934Z,101372.08
2019-04-10T09:10:26.059Z,101374.69
2019-04-10T09:12:55.947Z,101371.19
2019-04-10T09:15:25.752Z,101369.27
2019-04-10T09:17:54.290Z,101362.05
2019-04-10T09:20:22.734Z,101368.14
2019-04-10T09:23:14.534Z,101366.80
2019-04-10T09:25:21.403Z,101360.70
2019-04-10T09:27:49.892Z,101363.42
2019-04-10T09:30:18.519Z,101357.62
2019-04-10T09:32:47.013Z,101357.17
2019-04-10T09:35:16.371Z,101354.23
2019-04-10T09:37:46.182Z,101363.52
2019-04-10T09:40:16.286Z,101353.83
2019-04-10T09:42:45.878Z,101350.90
2019-04-10T09:45:15.762Z,101352.16
2019-04-10T09:47:44.310Z,101344.41
2019-04-10T09:50:15.114Z,101345.06
2019-04-10T09:52:44.053Z,101355.14
2019-04-10T09:55:13.775Z,101349.33
2019-04-10T09:57:43.101Z,101347.14
2019-04-10T10:00:12.071Z,101347.06
2019-04-10T10:02:40.521Z,101340.27
2019-04-10T10:05:09.161Z,101343.44
2019-04-10T10:07:37.621Z,101342.14
2019-04-10T10:10:08.742Z,101347.53
2019-04-10T10:12:38.533Z,101338.50
2019-04-10T10:15:09.486Z,101345.91
2019-04-10T10:17:39.156Z,101351.75
2019-04-10T10:20:08.383Z,101353.69
2019-04-10T10:22:37.107Z,101354.42
2019-04-10T10:25:07.441Z,101352.21
2019-04-10T10:27:36.603Z,101346.65
2019-04-10T10:30:07.560Z,101345.87
2019-04-10T10:32:37.087Z,101349.52
2019-04-10T10:35:09.439Z,101347.04
2019-04-10T10:37:38.856Z,101353.67
2019-04-10T10:40:08.851Z,101350.61
2019-04-10T10:42:39.811Z,101341.80
2019-04-10T10:45:10.456Z,101349.14
2019-04-10T10:47:40.201Z,101343.95
2019-04-10T10:50:09.888Z,101339.22
2019-04-10T10:52:38.288Z,101338.39
2019-04-10T10:55:07.665Z,101331.87
2019-04-10T10:57:37.373Z,101341.34
2019-04-10T11:00:08.309Z,101335.55
2019-04-10T11:02:37.992Z,101340.78
2019-04-10T11:05:07.282Z,101336.51
2019-04-10T11:07:36.043Z,101333.02
2019-04-10T11:10:06.985Z,101330.50
2019-04-10T11:12:35.777Z,101325.33
2019-04-10T11:15:06.060Z,101317.81
2019-04-10T11:17:35.721Z,101316.43
2019-04-10T11:20:10.179Z,101318.25
2019-04-10T11:22:39.719Z,101312.36
2019-04-10T11:25:08.842Z,101320.05
2019-04-10T11:27:37.245Z,101328.95
2019-04-10T11:30:10.147Z,101318.19
2019-04-10T11:32:38.762Z,101328.89
2019-04-10T11:35:08.984Z,101324.17
2019-04-10T11:40:08.747Z,101315.02
2019-04-10T11:42:39.649Z,101329.83
2019-04-10T11:45:10.618Z,101331.95
2019-04-10T11:47:39.850Z,101334.02
2019-04-10T11:50:13.184Z,101329.79
2019-04-10T11:52:45.259Z,101324.13
2019-04-10T11:55:15.945Z,101324.00
2019-04-10T11:57:42.133Z,101325.90
2019-04-10T12:00:17.487Z,101336.46
2019-04-10T12:02:47.019Z,101338.14
2019-04-10T12:05:18.604Z,101335.59
2019-04-10T12:08:27.935Z,101341.55
2019-04-10T12:12:43.961Z,101339.27
2019-04-10T12:15:12.429Z,101342.52
2019-04-10T12:17:40.881Z,101334.98
2019-04-10T12:20:09.620Z,101328.39
2019-04-10T12:22:38.065Z,101328.92
2019-04-10T12:25:07.064Z,101325.89
2019-04-10T12:27:35.447Z,101326.59
2019-04-10T12:30:06.893Z,101318.97
2019-04-10T12:32:35.478Z,101318.63
2019-04-10T12:35:06.743Z,101326.77
2019-04-10T12:37:35.521Z,101330.67
2019-04-10T12:40:06.302Z,101327.53
2019-04-10T12:42:34.747Z,101330.41
2019-04-10T12:45:06.177Z,101330.54
2019-04-10T12:47:34.960Z,101336.23
2019-04-10T12:50:05.819Z,101330.55
2019-04-10T12:52:34.592Z,101332.47
2019-04-10T12:55:03.970Z,101332.71
2019-04-10T12:57:32.549Z,101335.81
2019-04-10T13:00:04.153Z,101328.61
2019-04-10T13:02:31.338Z,101316.12
2019-04-10T13:05:00.795Z,101318.61
2019-04-10T13:07:29.713Z,101313.33
2019-04-10T13:09:58.274Z,101311.30
2019-04-10T13:12:26.703Z,101326.27
2019-04-10T13:14:55.180Z,101326.50
2019-04-10T13:17:24.754Z,101324.42
2019-04-10T13:19:53.437Z,101336.61
2019-04-10T13:22:22.222Z,101332.06
2019-04-10T13:24:50.805Z,101346.30
2019-04-10T13:27:19.270Z,101332.03
2019-04-10T13:29:48.620Z,101335.28
2019-04-10T13:32:18.242Z,101337.46
2019-04-10T13:34:46.878Z,101334.09
2019-04-10T13:37:15.840Z,101320.11
2019-04-10T13:39:44.397Z,101322.92
2019-04-10T13:42:12.940Z,101315.29
2019-04-10T13:44:42.252Z,101317.22
2019-04-10T13:47:11.288Z,101320.74
2019-04-10T13:49:40.066Z,101319.17
2019-04-10T13:52:08.630Z,101310.00
2019-04-10T13:54:37.093Z,101326.55
2019-04-10T13:57:05.774Z,101314.94
2019-04-10T13:59:35.197Z,101327.81
2019-04-10T14:02:05.545Z,101325.09
2019-04-10T14:04:35.400Z,101319.77
2019-04-10T14:07:04.855Z,101327.88
2019-04-10T14:09:40.590Z,101330.28
2019-04-10T14:12:04.085Z,101339.71
2019-04-10T14:14:32.899Z,101339.30
2019-04-10T14:17:04.110Z,101347.66
2019-04-10T14:19:31.874Z,101343.48
2019-04-10T14:22:00.405Z,101345.45
2019-04-10T14:24:39.282Z,101350.23
2019-04-10T14:27:09.995Z,101341.11
2019-04-10T14:29:38.653Z,101348.13
2019-04-10T14:32:09.228Z,101351.38
2019-04-10T14:34:38.681Z,101346.25
2019-04-10T14:37:09.334Z,101356.50
2019-04-10T14:39:37.904Z,101358.61
2019-04-10T14:42:06.601Z,101349.23
2019-04-10T14:44:35.135Z,101370.98
2019-04-10T14:47:04.403Z,101365.45
2019-04-10T14:49:33.449Z,101361.23
2019-04-10T14:52:03.091Z,101378.56
2019-04-10T14:54:32.183Z,101364.08
2019-04-10T14:57:00.670Z,101377.34
2019-04-10T14:59:29.131Z,101378.48
2019-04-10T15:01:58.019Z,101363.95
2019-04-10T15:04:26.913Z,101375.20
2019-04-10T15:06:55.646Z,101368.19
2019-04-10T15:09:26.063Z,101364.50
2019-04-10T15:11:55.298Z,101361.83
2019-04-10T15:14:23.881Z,101365.98
2019-04-10T15:16:58.814Z,101364.77
2019-04-10T15:19:22.723Z,101358.53
2019-04-10T15:21:53.699Z,101365.69
2019-04-10T15:24:21.686Z,101369.32
2019-04-10T15:26:50.989Z,101370.43
2019-04-10T15:29:20.428Z,101370.43
2019-04-10T15:31:50.244Z,101376.39
2019-04-10T15:34:18.808Z,101387.55
2019-04-10T15:36:48.164Z,101386.13
2019-04-10T15:39:17.524Z,101385.05
2019-04-10T15:41:46.026Z,101386.13
2019-04-10T15:44:15.366Z,101389.52
2019-04-10T15:46:45.634Z,101393.91
2019-04-10T15:49:15.280Z,101394.86
2019-04-10T15:51:43.829Z,101389.30
2019-04-10T15:54:12.334Z,101383.83
2019-04-10T15:56:40.763Z,101392.22
2019-04-10T15:59:10.126Z,101391.15
2019-04-10T16:01:39.272Z,101397.56
2019-04-10T16:04:08.664Z,101393.19
2019-04-10T16:06:38.126Z,101393.45
2019-04-10T16:09:07.813Z,101386.67
2019-04-10T16:11:46.932Z,101395.50
2019-04-10T16:14:21.985Z,101394.34
2019-04-10T16:16:56.981Z,101395.31
2019-04-10T16:19:30.964Z,101397.48
2019-04-10T16:21:59.870Z,101394.19
2019-04-10T16:24:29.419Z,101392.46
2019-04-10T16:26:57.989Z,101396.06
2019-04-10T16:29:26.739Z,101400.33
2019-04-10T16:31:56.499Z,101403.06
2019-04-10T16:34:25.150Z,101407.02
2019-04-10T16:36:54.202Z,101406.64
2019-04-10T16:39:23.311Z,101404.93
2019-04-10T16:41:52.396Z,101404.00
2019-04-10T16:44:21.334Z,101407.57
2019-04-10T16:46:50.890Z,101413.27
2019-04-10T16:49:20.309Z,101409.92
2019-04-10T16:51:48.809Z,101414.14
2019-04-10T16:54:19.075Z,101417.88
2019-04-10T16:56:47.804Z,101418.55
2019-04-10T16:59:16.397Z,101426.80
2019-04-10T17:01:44.956Z,101420.00
2019-04-10T17:04:14.491Z,101423.81
2019-04-10T17:06:44.220Z,101422.94
2019-04-10T17:09:14.485Z,101417.90
2019-04-10T17:11:43.111Z,101428.11
2019-04-10T17:14:11.580Z,101428.92
2019-04-10T17:16:40.059Z,101430.52
2019-04-10T17:19:09.741Z,101438.77
2019-04-10T17:21:38.484Z,101433.37
2019-04-10T17:24:07.198Z,101448.66
2019-04-10T17:26:36.870Z,101441.45
2019-04-10T17:29:06.976Z,101443.89
2019-04-10T17:31:35.630Z,101443.27
2019-04-10T17:34:04.171Z,101447.47
2019-04-10T17:36:32.825Z,101452.64
2019-04-10T17:39:02.830Z,101448.09
2019-04-10T17:41:31.490Z,101454.47
2019-04-10T17:44:02.071Z,101451.00
2019-04-10T17:46:31.166Z,101458.92
2019-04-10T17:48:59.652Z,101461.98
2019-04-10T17:51:28.407Z,101462.20
2019-04-10T17:53:57.950Z,101463.44
2019-04-10T17:56:26.557Z,101467.89
2019-04-10T17:58:56.010Z,101466.84
2019-04-10T18:01:27.043Z,101462.49
2019-04-10T18:03:58.982Z,101477.45
2019-04-10T18:06:25.891Z,101483.73
2019-04-10T18:08:54.339Z,101482.84
2019-04-10T18:11:22.800Z,101492.38
2019-04-10T18:13:51.268Z,101496.46
2019-04-10T18:16:19.975Z,101501.47
2019-04-10T18:18:48.707Z,101500.39
2019-04-10T18:21:17.216Z,101508.76
2019-04-10T18:23:45.688Z,101521.16
2019-04-10T18:26:14.227Z,101527.70
2019-04-10T18:28:43.585Z,101523.88
2019-04-10T18:31:12.485Z,101534.50
2019-04-10T18:33:41.002Z,101531.27
2019-04-10T18:36:09.439Z,101541.28
2019-04-10T18:38:37.902Z,101537.36
2019-04-10T18:41:08.582Z,101537.77
2019-04-10T18:43:36.755Z,101539.44
2019-04-10T18:46:12.282Z,101541.52
2019-04-10T18:48:35.622Z,101544.38
2019-04-10T18:51:06.643Z,101546.95
2019-04-10T18:53:35.189Z,101548.25
2019-04-10T18:56:04.950Z,101545.91
2019-04-10T18:58:40.860Z,101554.57
2019-04-10T19:01:28.784Z,101547.25
2019-04-10T19:04:09.998Z,101564.94
2019-04-10T19:06:58.808Z,101558.00
2019-04-10T19:09:30.281Z,101569.75
2019-04-10T19:12:00.277Z,101568.23
2019-04-10T19:14:30.237Z,101570.56
2019-04-10T19:16:58.866Z,101567.20
2019-04-10T19:19:28.192Z,101578.41
2019-04-10T19:21:56.838Z,101571.14
2019-04-10T19:24:28.108Z,101577.53
2019-04-10T19:26:57.817Z,101570.77
2019-04-10T19:29:27.498Z,101579.69
2019-04-10T19:32:00.479Z,101577.41
2019-04-10T19:34:29.517Z,101571.09
2019-04-10T19:36:58.396Z,101573.39
2019-04-10T19:39:26.879Z,101576.70
2019-04-10T19:41:55.678Z,101574.50
2019-04-10T19:44:24.292Z,101579.85
2019-04-10T19:46:53.606Z,101574.50
2019-04-10T19:49:23.834Z,101575.30
2019-04-10T19:51:52.454Z,101577.41
2019-04-10T19:54:21.942Z,101579.72
2019-04-10T19:56:50.971Z,101577.13
2019-04-10T19:59:20.760Z,101584.30
2019-04-10T20:01:50.457Z,101580.53
2019-04-10T20:04:19.160Z,101581.60
2019-04-10T20:06:48.785Z,101582.19
2019-04-10T20:09:18.019Z,101586.37
2019-04-10T20:11:52.251Z,101596.11
2019-04-10T20:14:16.861Z,101595.03
2019-04-10T20:16:45.384Z,101596.22
2019-04-10T20:19:14.960Z,101598.44
2019-04-10T20:21:43.995Z,101604.27
2019-04-10T20:24:12.556Z,101600.73
2019-04-10T20:26:41.236Z,101608.77
2019-04-10T20:29:10.853Z,101610.23
2019-04-10T20:31:39.692Z,101611.53
2019-04-10T20:34:09.405Z,101627.02
2019-04-10T20:36:38.880Z,101623.55
2019-04-10T20:39:09.453Z,101622.86
2019-04-10T20:41:46.523Z,101624.72
2019-04-10T20:44:09.288Z,101626.41
2019-04-10T20:46:38.190Z,101631.30
2019-04-10T20:49:08.441Z,101627.60
2019-04-10T20:51:37.722Z,101635.95
2019-04-10T20:54:06.581Z,101643.18
2019-04-10T20:56:35.117Z,101648.95
2019-04-10T20:59:03.580Z,101650.92
2019-04-10T21:01:33.032Z,101652.31
2019-04-10T21:04:01.510Z,101659.45
2019-04-10T21:06:29.975Z,101662.59
2019-04-10T21:08:58.774Z,101665.09
2019-04-10T21:11:27.352Z,101659.44
2019-04-10T21:13:56.582Z,101667.20
2019-04-10T21:16:25.297Z,101668.16
2019-04-10T21:18:53.927Z,101679.15
2019-04-10T21:21:22.439Z,101684.84
2019-04-10T21:23:52.043Z,101682.11
2019-04-10T21:26:21.900Z,101685.91
2019-04-10T21:28:51.522Z,101686.57
2019-04-10T21:31:38.589Z,101698.33
2019-04-10T21:34:21.823Z,101700.59
2019-04-10T21:36:51.198Z,101699.47
2019-04-10T21:39:19.756Z,101702.70
2019-04-10T21:41:48.828Z,101713.25
2019-04-10T21:44:18.279Z,101713.64
2019-04-10T21:46:46.886Z,101711.59
2019-04-10T21:49:15.549Z,101722.38
2019-04-10T21:51:44.843Z,101727.05
2019-04-10T21:54:14.104Z,101721.34
2019-04-10T21:56:43.146Z,101722.67
2019-04-10T21:59:11.696Z,101721.45
2019-04-10T22:01:40.435Z,101726.35
2019-04-10T22:04:10.218Z,101724.87
2019-04-10T22:06:40.531Z,101726.48
2019-04-10T22:09:14.554Z,101726.17
2019-04-10T22:11:45.604Z,101721.41
2019-04-10T22:14:15.076Z,101725.33
2019-04-10T22:16:44.347Z,101732.70
2019-04-10T22:19:12.940Z,101729.47
2019-04-10T22:21:41.949Z,101733.19
2019-04-10T22:24:11.580Z,101737.38
2019-04-10T22:26:40.345Z,101732.81
2019-04-10T22:29:10.615Z,101733.70
2019-04-10T22:31:39.507Z,101732.31
2019-04-10T22:34:10.173Z,101736.08
2019-04-10T22:36:39.512Z,101738.50
2019-04-10T22:39:10.894Z,101737.02
2019-04-10T22:41:40.466Z,101739.27
2019-04-10T22:44:09.732Z,101739.51
2019-04-10T22:46:38.458Z,101737.73
2019-04-10T22:49:06.950Z,101746.76
2019-04-10T22:51:35.658Z,101746.47
2019-04-10T22:54:04.377Z,101750.06
2019-04-10T22:56:33.673Z,101747.89
2019-04-10T22:59:02.181Z,101739.72
2019-04-10T23:01:31.296Z,101750.34
2019-04-10T23:03:59.789Z,101754.54
2019-04-10T23:06:29.249Z,101746.08
2019-04-10T23:08:58.086Z,101754.05
2019-04-10T23:11:39.080Z,101754.89
2019-04-10T23:13:56.859Z,101754.22
2019-04-10T23:16:26.157Z,101759.45
2019-04-10T23:18:54.623Z,101754.22
2019-04-10T23:21:23.103Z,101760.58
2019-04-10T23:23:51.743Z,101767.28
2019-04-10T23:26:20.888Z,101769.28
2019-04-10T23:28:50.043Z,101782.31
2019-04-10T23:31:18.702Z,101771.52
2019-04-10T23:33:48.189Z,101772.13
2019-04-10T23:36:16.763Z,101761.89
2019-04-10T23:38:45.880Z,101769.28
2019-04-10T23:41:15.610Z,101761.76
2019-04-10T23:43:44.257Z,101767.07
2019-04-10T23:46:12.831Z,101765.40
2019-04-10T23:48:41.292Z,101771.98
2019-04-10T23:51:10.576Z,101779.31
2019-04-10T23:53:39.105Z,101781.20
2019-04-10T23:56:07.584Z,101783.94
2019-04-10T23:58:36.476Z,101784.06
